sensor_id;sensor_type;location;lat;lon;timestamp;pressure;altitude;pressure_sealevel;temperature;humidity
36254;BME280;22291;52.250;21.228;2023-03-20T00:01:24;100251.91;;;4.95;58.49
36254;BME280;22291;52.250;21.228;2023-03-20T00:03:56;100249.79;;;4.89;58.50
36254;BME280;22291;52.250;21.228;2023-03-20T00:06:25;100254.62;;;4.84;58.66
36254;BME280;22291;52.250;21.228;2023-03-20T00:08:55;100253.56;;;4.80;59.06
36254;BME280;22291;52.250;21.228;2023-03-20T00:11:31;100245.52;;;4.78;59.39
36254;BME280;22291;52.250;21.228;2023-03-20T00:14:00;100245.25;;;4.79;59.35
36254;BME280;22291;52.250;21.228;2023-03-20T00:16:33;100241.25;;;4.77;58.97
36254;BME280;22291;52.250;21.228;2023-03-20T00:19:05;100246.05;;;4.75;59.25
36254;BME280;22291;52.250;21.228;2023-03-20T00:21:33;100236.69;;;4.72;59.24
36254;BME280;22291;52.250;21.228;2023-03-20T00:23:59;100241.26;;;4.72;59.43
36254;BME280;22291;52.250;21.228;2023-03-20T00:26:32;100238.57;;;4.69;59.79
36254;BME280;22291;52.250;21.228;2023-03-20T00:29:01;100236.70;;;4.67;59.54
36254;BME280;22291;52.250;21.228;2023-03-20T00:31:33;100232.16;;;4.65;59.75
36254;BME280;22291;52.250;21.228;2023-03-20T00:34:09;100238.31;;;4.65;60.08
36254;BME280;22291;52.250;21.228;2023-03-20T00:36:41;100238.30;;;4.63;60.09
36254;BME280;22291;52.250;21.228;2023-03-20T00:39:08;100232.70;;;4.57;59.97
36254;BME280;22291;52.250;21.228;2023-03-20T00:44:40;100230.83;;;4.47;60.16
36254;BME280;22291;52.250;21.228;2023-03-20T00:49:58;100226.02;;;4.36;60.60
36254;BME280;22291;52.250;21.228;2023-03-20T00:52:25;100222.81;;;4.32;60.36
36254;BME280;22291;52.250;21.228;2023-03-20T00:54:52;100221.75;;;4.27;60.85
36254;BME280;22291;52.250;21.228;2023-03-20T00:57:23;100215.30;;;4.23;60.68
36254;BME280;22291;52.250;21.228;2023-03-20T00:59:57;100219.34;;;4.21;61.00
36254;BME280;22291;52.250;21.228;2023-03-20T01:02:28;100214.50;;;4.15;61.05
36254;BME280;22291;52.250;21.228;2023-03-20T01:04:57;100214.23;;;4.11;61.05
36254;BME280;22291;52.250;21.228;2023-03-20T01:07:23;100218.77;;;4.08;61.14
36254;BME280;22291;52.250;21.228;2023-03-20T01:09:50;100214.25;;;4.04;61.27
36254;BME280;22291;52.250;21.228;2023-03-20T01:12:17;100217.99;;;4.00;61.62
36254;BME280;22291;52.250;21.228;2023-03-20T01:14:47;100213.96;;;3.98;61.75
36254;BME280;22291;52.250;21.228;2023-03-20T01:17:18;100210.22;;;3.93;61.58
36254;BME280;22291;52.250;21.228;2023-03-20T01:19:47;100214.77;;;3.90;62.00
36254;BME280;22291;52.250;21.228;2023-03-20T01:22:14;100209.14;;;3.87;61.91
36254;BME280;22291;52.250;21.228;2023-03-20T01:24:44;100209.95;;;3.85;62.17
36254;BME280;22291;52.250;21.228;2023-03-20T01:27:17;100212.61;;;3.82;62.11
36254;BME280;22291;52.250;21.228;2023-03-20T01:29:46;100213.93;;;3.80;62.38
36254;BME280;22291;52.250;21.228;2023-03-20T01:32:19;100219.01;;;3.76;62.55
36254;BME280;22291;52.250;21.228;2023-03-20T01:34:45;100212.58;;;3.74;62.70
36254;BME280;22291;52.250;21.228;2023-03-20T01:37:16;100210.71;;;3.72;62.69
36254;BME280;22291;52.250;21.228;2023-03-20T01:39:45;100209.13;;;3.71;62.64
36254;BME280;22291;52.250;21.228;2023-03-20T01:42:14;100213.12;;;3.69;62.90
36254;BME280;22291;52.250;21.228;2023-03-20T01:44:41;100210.70;;;3.67;62.78
36254;BME280;22291;52.250;21.228;2023-03-20T01:47:18;100209.63;;;3.66;63.13
36254;BME280;22291;52.250;21.228;2023-03-20T01:50:18;100205.88;;;3.64;63.10
36254;BME280;22291;52.250;21.228;2023-03-20T01:53:01;100205.09;;;3.64;63.24
36254;BME280;22291;52.250;21.228;2023-03-20T01:55:31;100204.01;;;3.62;63.02
36254;BME280;22291;52.250;21.228;2023-03-20T01:58:00;100200.26;;;3.61;63.40
36254;BME280;22291;52.250;21.228;2023-03-20T02:00:29;100205.07;;;3.59;63.47
36254;BME280;22291;52.250;21.228;2023-03-20T02:02:58;100195.18;;;3.57;63.42
36254;BME280;22291;52.250;21.228;2023-03-20T02:05:26;100198.91;;;3.55;63.68
36254;BME280;22291;52.250;21.228;2023-03-20T02:08:07;100196.50;;;3.54;63.70
36254;BME280;22291;52.250;21.228;2023-03-20T02:10:38;100191.16;;;3.51;63.66
36254;BME280;22291;52.250;21.228;2023-03-20T02:13:07;100185.53;;;3.50;63.62
36254;BME280;22291;52.250;21.228;2023-03-20T02:15:51;100189.80;;;3.49;63.96
36254;BME280;22291;52.250;21.228;2023-03-20T02:18:24;100186.05;;;3.47;64.44
36254;BME280;22291;52.250;21.228;2023-03-20T02:21:49;100187.94;;;3.44;64.45
36254;BME280;22291;52.250;21.228;2023-03-20T02:26:46;100187.13;;;3.41;64.62
36254;BME280;22291;52.250;21.228;2023-03-20T02:41:45;100182.56;;;3.42;64.86
36254;BME280;22291;52.250;21.228;2023-03-20T02:49:54;100171.34;;;3.40;65.31
36254;BME280;22291;52.250;21.228;2023-03-20T02:52:32;100171.88;;;3.39;65.48
36254;BME280;22291;52.250;21.228;2023-03-20T02:58:19;100169.47;;;3.38;65.49
36254;BME280;22291;52.250;21.228;2023-03-20T03:00:50;100165.45;;;3.38;65.86
36254;BME280;22291;52.250;21.228;2023-03-20T03:03:34;100162.78;;;3.38;65.77
36254;BME280;22291;52.250;21.228;2023-03-20T03:06:19;100168.13;;;3.38;65.96
36254;BME280;22291;52.250;21.228;2023-03-20T03:09:05;100170.80;;;3.38;65.84
36254;BME280;22291;52.250;21.228;2023-03-20T03:11:49;100166.52;;;3.36;65.72
36254;BME280;22291;52.250;21.228;2023-03-20T03:14:33;100174.00;;;3.34;65.57
36254;BME280;22291;52.250;21.228;2023-03-20T03:17:13;100169.98;;;3.34;65.97
36254;BME280;22291;52.250;21.228;2023-03-20T03:19:50;100171.05;;;3.33;65.37
36254;BME280;22291;52.250;21.228;2023-03-20T03:22:15;100171.59;;;3.30;65.28
36254;BME280;22291;52.250;21.228;2023-03-20T03:24:46;100169.19;;;3.29;65.75
36254;BME280;22291;52.250;21.228;2023-03-20T03:27:20;100168.36;;;3.28;65.83
36254;BME280;22291;52.250;21.228;2023-03-20T03:29:56;100170.50;;;3.26;65.78
36254;BME280;22291;52.250;21.228;2023-03-20T03:35:00;100173.16;;;3.21;65.76
36254;BME280;22291;52.250;21.228;2023-03-20T03:37:40;100169.14;;;3.21;65.74
36254;BME280;22291;52.250;21.228;2023-03-20T03:40:45;100167.53;;;3.20;65.47
36254;BME280;22291;52.250;21.228;2023-03-20T03:43:30;100165.14;;;3.18;65.87
36254;BME280;22291;52.250;21.228;2023-03-20T03:46:18;100167.81;;;3.18;65.89
36254;BME280;22291;52.250;21.228;2023-03-20T03:48:49;100155.50;;;3.17;65.71
36254;BME280;22291;52.250;21.228;2023-03-20T03:51:22;100158.72;;;3.17;66.08
36254;BME280;22291;52.250;21.228;2023-03-20T03:53:58;100150.96;;;3.15;66.15
36254;BME280;22291;52.250;21.228;2023-03-20T03:56:30;100153.09;;;3.16;66.34
36254;BME280;22291;52.250;21.228;2023-03-20T03:59:00;100148.29;;;3.15;66.43
36254;BME280;22291;52.250;21.228;2023-03-20T04:01:31;100143.46;;;3.12;66.35
36254;BME280;22291;52.250;21.228;2023-03-20T04:04:03;100142.10;;;3.10;66.03
36254;BME280;22291;52.250;21.228;2023-03-20T04:06:32;100137.30;;;3.07;66.19
36254;BME280;22291;52.250;21.228;2023-03-20T04:08:59;100139.16;;;3.04;66.44
36254;BME280;22291;52.250;21.228;2023-03-20T04:11:26;100141.02;;;3.01;66.07
36254;BME280;22291;52.250;21.228;2023-03-20T04:13:55;100141.53;;;2.97;66.10
36254;BME280;22291;52.250;21.228;2023-03-20T04:16:23;100138.58;;;2.94;65.91
36254;BME280;22291;52.250;21.228;2023-03-20T04:18:51;100139.10;;;2.91;65.81
36254;BME280;22291;52.250;21.228;2023-03-20T04:21:19;100142.29;;;2.88;65.80
36254;BME280;22291;52.250;21.228;2023-03-20T04:23:45;100147.92;;;2.86;66.04
36254;BME280;22291;52.250;21.228;2023-03-20T04:26:11;100156.70;;;2.84;66.21
36254;BME280;22291;52.250;21.228;2023-03-20T04:28:40;100151.62;;;2.83;66.72
36254;BME280;22291;52.250;21.228;2023-03-20T04:31:07;100153.22;;;2.78;66.74
36254;BME280;22291;52.250;21.228;2023-03-20T04:33:33;100149.98;;;2.74;66.86
36254;BME280;22291;52.250;21.228;2023-03-20T04:36:05;100145.98;;;2.71;67.08
36254;BME280;22291;52.250;21.228;2023-03-20T04:38:32;100149.16;;;2.68;66.92
36254;BME280;22291;52.250;21.228;2023-03-20T04:40:58;100156.89;;;2.67;67.09
36254;BME280;22291;52.250;21.228;2023-03-20T04:43:25;100153.42;;;2.67;67.20
36254;BME280;22291;52.250;21.228;2023-03-20T04:45:52;100154.22;;;2.67;67.46
36254;BME280;22291;52.250;21.228;2023-03-20T04:48:20;100153.97;;;2.66;67.21
36254;BME280;22291;52.250;21.228;2023-03-20T04:50:46;100154.51;;;2.66;67.55
36254;BME280;22291;52.250;21.228;2023-03-20T04:53:15;100155.02;;;2.65;67.20
36254;BME280;22291;52.250;21.228;2023-03-20T04:55:45;100158.52;;;2.66;67.44
36254;BME280;22291;52.250;21.228;2023-03-20T04:58:13;100156.89;;;2.65;67.53
36254;BME280;22291;52.250;21.228;2023-03-20T05:00:42;100156.09;;;2.64;67.68
36254;BME280;22291;52.250;21.228;2023-03-20T05:03:09;100150.22;;;2.65;67.92
36254;BME280;22291;52.250;21.228;2023-03-20T05:05:37;100158.77;;;2.67;67.58
36254;BME280;22291;52.250;21.228;2023-03-20T05:08:05;100160.90;;;2.67;67.64
36254;BME280;22291;52.250;21.228;2023-03-20T05:10:32;100158.77;;;2.67;67.66
36254;BME280;22291;52.250;21.228;2023-03-20T05:13:01;100161.98;;;2.69;67.80
36254;BME280;22291;52.250;21.228;2023-03-20T05:15:27;100162.55;;;2.71;68.12
36254;BME280;22291;52.250;21.228;2023-03-20T05:17:53;100164.41;;;2.75;68.11
36254;BME280;22291;52.250;21.228;2023-03-20T05:20:21;100168.45;;;2.78;68.11
36254;BME280;22291;52.250;21.228;2023-03-20T05:22:49;100164.44;;;2.80;68.31
36254;BME280;22291;52.250;21.228;2023-03-20T05:25:16;100170.32;;;2.83;68.37
36254;BME280;22291;52.250;21.228;2023-03-20T05:28:04;100159.66;;;2.85;68.49
36254;BME280;22291;52.250;21.228;2023-03-20T05:30:31;100161.02;;;2.90;68.56
36254;BME280;22291;52.250;21.228;2023-03-20T05:32:58;100162.89;;;2.92;68.64
36254;BME280;22291;52.250;21.228;2023-03-20T05:35:25;100165.07;;;2.98;68.85
36254;BME280;22291;52.250;21.228;2023-03-20T05:37:51;100165.09;;;3.03;68.95
36254;BME280;22291;52.250;21.228;2023-03-20T05:40:18;100166.95;;;3.08;68.95
36254;BME280;22291;52.250;21.228;2023-03-20T05:42:45;100171.01;;;3.15;69.27
36254;BME280;22291;52.250;21.228;2023-03-20T05:45:12;100169.95;;;3.27;69.47
36254;BME280;22291;52.250;21.228;2023-03-20T05:47:41;100168.64;;;3.37;69.45
36254;BME280;22291;52.250;21.228;2023-03-20T05:50:10;100166.28;;;3.46;69.39
36254;BME280;22291;52.250;21.228;2023-03-20T05:52:36;100165.48;;;3.55;69.21
36254;BME280;22291;52.250;21.228;2023-03-20T05:55:03;100164.96;;;3.64;69.01
36254;BME280;22291;52.250;21.228;2023-03-20T05:57:31;100173.26;;;3.72;68.82
36254;BME280;22291;52.250;21.228;2023-03-20T05:59:57;100169.53;;;3.84;69.08
36254;BME280;22291;52.250;21.228;2023-03-20T06:02:23;100169.52;;;3.97;69.27
36254;BME280;22291;52.250;21.228;2023-03-20T06:04:49;100170.61;;;4.11;69.01
36254;BME280;22291;52.250;21.228;2023-03-20T06:07:16;100178.61;;;4.24;68.92
36254;BME280;22291;52.250;21.228;2023-03-20T06:09:42;100164.68;;;4.37;68.65
36254;BME280;22291;52.250;21.228;2023-03-20T06:12:08;100171.90;;;4.55;69.05
36254;BME280;22291;52.250;21.228;2023-03-20T06:14:34;100170.23;;;4.77;69.79
36254;BME280;22291;52.250;21.228;2023-03-20T06:17:00;100173.09;;;4.98;69.02
36254;BME280;22291;52.250;21.228;2023-03-20T06:19:26;100175.16;;;5.19;68.75
36254;BME280;22291;52.250;21.228;2023-03-20T06:21:53;100178.25;;;5.42;69.00
36254;BME280;22291;52.250;21.228;2023-03-20T06:24:19;100176.75;;;5.68;68.32
36254;BME280;22291;52.250;21.228;2023-03-20T06:26:45;100177.39;;;5.89;67.88
36254;BME280;22291;52.250;21.228;2023-03-20T06:29:11;100176.98;;;6.11;67.47
36254;BME280;22291;52.250;21.228;2023-03-20T06:31:38;100175.45;;;6.31;66.62
36254;BME280;22291;52.250;21.228;2023-03-20T06:34:05;100173.67;;;6.51;66.45
36254;BME280;22291;52.250;21.228;2023-03-20T06:36:31;100173.91;;;6.79;66.77
36254;BME280;22291;52.250;21.228;2023-03-20T06:38:58;100177.62;;;7.07;66.09
36254;BME280;22291;52.250;21.228;2023-03-20T06:41:24;100171.86;;;7.35;65.27
36254;BME280;22291;52.250;21.228;2023-03-20T06:43:51;100173.45;;;7.58;63.75
36254;BME280;22291;52.250;21.228;2023-03-20T06:46:17;100169.13;;;7.76;63.68
36254;BME280;22291;52.250;21.228;2023-03-20T06:48:43;100171.92;;;8.03;62.83
36254;BME280;22291;52.250;21.228;2023-03-20T06:51:11;100174.94;;;8.32;63.08
36254;BME280;22291;52.250;21.228;2023-03-20T06:53:37;100172.77;;;8.65;61.60
36254;BME280;22291;52.250;21.228;2023-03-20T06:56:08;100170.52;;;8.97;62.02
36254;BME280;22291;52.250;21.228;2023-03-20T06:58:37;100171.27;;;9.39;61.85
36254;BME280;22291;52.250;21.228;2023-03-20T07:01:11;100176.05;;;9.90;61.27
36254;BME280;22291;52.250;21.228;2023-03-20T07:03:40;100171.92;;;10.38;60.49
36254;BME280;22291;52.250;21.228;2023-03-20T07:06:09;100175.05;;;10.82;58.72
36254;BME280;22291;52.250;21.228;2023-03-20T07:08:37;100169.02;;;11.14;58.27
36254;BME280;22291;52.250;21.228;2023-03-20T07:11:07;100169.45;;;11.54;56.62
36254;BME280;22291;52.250;21.228;2023-03-20T07:13:36;100168.34;;;11.81;56.16
36254;BME280;22291;52.250;21.228;2023-03-20T07:16:06;100167.94;;;12.11;55.54
36254;BME280;22291;52.250;21.228;2023-03-20T07:18:33;100167.19;;;12.49;55.08
36254;BME280;22291;52.250;21.228;2023-03-20T07:21:04;100172.98;;;12.78;54.08
36254;BME280;22291;52.250;21.228;2023-03-20T07:23:31;100170.81;;;13.01;52.91
36254;BME280;22291;52.250;21.228;2023-03-20T07:26:00;100171.81;;;13.47;52.97
36254;BME280;22291;52.250;21.228;2023-03-20T07:28:28;100174.27;;;13.88;52.33
36254;BME280;22291;52.250;21.228;2023-03-20T07:30:56;100170.19;;;14.28;51.08
36254;BME280;22291;52.250;21.228;2023-03-20T07:33:22;100171.19;;;14.81;50.56
36254;BME280;22291;52.250;21.228;2023-03-20T07:35:54;100175.25;;;15.24;49.92
36254;BME280;22291;52.250;21.228;2023-03-20T07:38:23;100166.05;;;15.76;49.49
36254;BME280;22291;52.250;21.228;2023-03-20T07:40:49;100172.73;;;16.29;48.54
36254;BME280;22291;52.250;21.228;2023-03-20T07:43:21;100169.84;;;16.69;46.99
36254;BME280;22291;52.250;21.228;2023-03-20T07:45:52;100167.55;;;17.03;46.51
36254;BME280;22291;52.250;21.228;2023-03-20T07:48:20;100162.42;;;17.47;45.69
36254;BME280;22291;52.250;21.228;2023-03-20T07:50:51;100163.98;;;17.93;44.96
36254;BME280;22291;52.250;21.228;2023-03-20T07:53:19;100168.83;;;18.13;43.92
36254;BME280;22291;52.250;21.228;2023-03-20T07:55:45;100164.89;;;18.10;42.58
36254;BME280;22291;52.250;21.228;2023-03-20T07:58:15;100165.97;;;17.96;42.17
36254;BME280;22291;52.250;21.228;2023-03-20T08:00:44;100165.68;;;17.82;41.94
36254;BME280;22291;52.250;21.228;2023-03-20T08:03:11;100170.58;;;17.63;41.72
36254;BME280;22291;52.250;21.228;2023-03-20T08:05:39;100170.14;;;17.51;41.87
36254;BME280;22291;52.250;21.228;2023-03-20T08:08:08;100168.63;;;17.44;41.71
36254;BME280;22291;52.250;21.228;2023-03-20T08:10:35;100171.93;;;17.33;41.69
36254;BME280;22291;52.250;21.228;2023-03-20T08:13:03;100172.77;;;17.28;41.63
36254;BME280;22291;52.250;21.228;2023-03-20T08:15:30;100168.39;;;17.23;41.30
36254;BME280;22291;52.250;21.228;2023-03-20T08:17:59;100169.66;;;17.20;41.13
36254;BME280;22291;52.250;21.228;2023-03-20T08:20:28;100175.58;;;17.22;41.32
36254;BME280;22291;52.250;21.228;2023-03-20T08:22:58;100172.52;;;17.52;41.50
36254;BME280;22291;52.250;21.228;2023-03-20T08:25:25;100171.67;;;17.97;41.35
36254;BME280;22291;52.250;21.228;2023-03-20T08:28:21;100171.11;;;18.31;41.38
36254;BME280;22291;52.250;21.228;2023-03-20T08:30:52;100171.48;;;18.65;40.34
36254;BME280;22291;52.250;21.228;2023-03-20T08:33:23;100170.41;;;18.70;40.03
36254;BME280;22291;52.250;21.228;2023-03-20T08:35:58;100167.34;;;18.75;39.65
36254;BME280;22291;52.250;21.228;2023-03-20T08:38:28;100169.45;;;18.72;39.23
36254;BME280;22291;52.250;21.228;2023-03-20T08:40:56;100169.98;;;18.68;39.22
36254;BME280;22291;52.250;21.228;2023-03-20T08:43:24;100163.44;;;18.63;38.85
36254;BME280;22291;52.250;21.228;2023-03-20T08:45:53;100161.54;;;18.67;39.16
36254;BME280;22291;52.250;21.228;2023-03-20T08:48:24;100168.86;;;18.96;39.36
36254;BME280;22291;52.250;21.228;2023-03-20T08:50:56;100167.22;;;19.18;38.70
36254;BME280;22291;52.250;21.228;2023-03-20T08:53:28;100167.30;;;19.38;38.29
36254;BME280;22291;52.250;21.228;2023-03-20T08:55:57;100168.73;;;19.59;38.33
36254;BME280;22291;52.250;21.228;2023-03-20T08:58:25;100168.03;;;19.79;37.61
36254;BME280;22291;52.250;21.228;2023-03-20T09:00:56;100169.14;;;19.91;37.36
36254;BME280;22291;52.250;21.228;2023-03-20T09:03:38;100177.14;;;20.07;37.03
36254;BME280;22291;52.250;21.228;2023-03-20T09:06:10;100177.52;;;20.23;36.91
36254;BME280;22291;52.250;21.228;2023-03-20T09:08:41;100174.42;;;20.48;36.78
36254;BME280;22291;52.250;21.228;2023-03-20T09:11:12;100171.48;;;20.71;36.28
36254;BME280;22291;52.250;21.228;2023-03-20T09:13:47;100169.84;;;21.19;36.06
36254;BME280;22291;52.250;21.228;2023-03-20T09:16:26;100168.31;;;21.63;35.85
36254;BME280;22291;52.250;21.228;2023-03-20T09:18:59;100173.84;;;21.71;34.81
36254;BME280;22291;52.250;21.228;2023-03-20T09:21:28;100172.01;;;21.51;33.95
36254;BME280;22291;52.250;21.228;2023-03-20T09:23:59;100167.86;;;21.16;33.91
36254;BME280;22291;52.250;21.228;2023-03-20T09:26:36;100168.05;;;21.13;34.43
36254;BME280;22291;52.250;21.228;2023-03-20T09:29:07;100165.38;;;21.27;34.48
36254;BME280;22291;52.250;21.228;2023-03-20T09:31:35;100165.22;;;21.34;34.14
36254;BME280;22291;52.250;21.228;2023-03-20T09:34:03;100167.36;;;21.31;33.16
36254;BME280;22291;52.250;21.228;2023-03-20T09:36:35;100166.77;;;20.96;33.48
36254;BME280;22291;52.250;21.228;2023-03-20T09:39:06;100161.05;;;20.95;33.71
36254;BME280;22291;52.250;21.228;2023-03-20T09:41:37;100154.98;;;20.99;33.30
36254;BME280;22291;52.250;21.228;2023-03-20T18:21:16;100087.65;;;11.19;71.38
36254;BME280;22291;52.250;21.228;2023-03-20T18:23:44;100089.15;;;10.97;71.65
36254;BME280;22291;52.250;21.228;2023-03-20T18:26:20;100099.55;;;10.83;72.06
36254;BME280;22291;52.250;21.228;2023-03-20T18:28:51;100095.05;;;10.70;72.49
36254;BME280;22291;52.250;21.228;2023-03-20T18:31:20;100104.16;;;10.54;72.66
36254;BME280;22291;52.250;21.228;2023-03-20T18:33:50;100101.80;;;10.41;73.50
36254;BME280;22291;52.250;21.228;2023-03-20T18:36:23;100102.44;;;10.27;73.81
36254;BME280;22291;52.250;21.228;2023-03-20T18:38:51;100096.88;;;10.12;74.19
36254;BME280;22291;52.250;21.228;2023-03-20T18:41:18;100093.95;;;10.00;74.57
36254;BME280;22291;52.250;21.228;2023-03-20T18:43:46;100094.44;;;9.90;75.10
36254;BME280;22291;52.250;21.228;2023-03-20T18:46:18;100088.98;;;9.82;75.22
36254;BME280;22291;52.250;21.228;2023-03-20T18:48:47;100101.34;;;9.74;75.74
36254;BME280;22291;52.250;21.228;2023-03-20T18:51:17;100103.36;;;9.68;76.22
36254;BME280;22291;52.250;21.228;2023-03-20T18:53:44;100102.99;;;9.61;76.09
36254;BME280;22291;52.250;21.228;2023-03-20T18:56:12;100100.98;;;9.56;76.29
36254;BME280;22291;52.250;21.228;2023-03-20T18:58:41;100097.58;;;9.50;77.20
36254;BME280;22291;52.250;21.228;2023-03-20T19:01:08;100098.56;;;9.43;77.42
36254;BME280;22291;52.250;21.228;2023-03-20T19:03:36;100098.45;;;9.37;77.45
36254;BME280;22291;52.250;21.228;2023-03-20T19:06:06;100099.66;;;9.30;77.62
36254;BME280;22291;52.250;21.228;2023-03-20T19:08:38;100096.52;;;9.26;77.80
36254;BME280;22291;52.250;21.228;2023-03-20T19:11:05;100087.48;;;9.19;78.52
36254;BME280;22291;52.250;21.228;2023-03-20T19:13:33;100087.30;;;9.15;78.56
36254;BME280;22291;52.250;21.228;2023-03-20T19:15:59;100090.61;;;9.12;78.54
36254;BME280;22291;52.250;21.228;2023-03-20T19:18:26;100083.19;;;9.07;78.87
36254;BME280;22291;52.250;21.228;2023-03-20T19:20:54;100084.09;;;9.02;79.15
36254;BME280;22291;52.250;21.228;2023-03-20T19:23:24;100094.69;;;8.98;79.25
36254;BME280;22291;52.250;21.228;2023-03-20T19:25:53;100095.62;;;8.94;79.43
36254;BME280;22291;52.250;21.228;2023-03-20T19:28:22;100095.66;;;8.91;79.97
36254;BME280;22291;52.250;21.228;2023-03-20T19:30:52;100097.38;;;8.87;79.83
36254;BME280;22291;52.250;21.228;2023-03-20T19:33:20;100093.06;;;8.86;79.76
36254;BME280;22291;52.250;21.228;2023-03-20T19:35:47;100101.16;;;8.86;80.23
36254;BME280;22291;52.250;21.228;2023-03-20T19:38:16;100095.27;;;8.84;80.25
36254;BME280;22291;52.250;21.228;2023-03-20T19:40:46;100098.76;;;8.85;80.79
36254;BME280;22291;52.250;21.228;2023-03-20T19:43:13;100089.31;;;8.85;80.76
36254;BME280;22291;52.250;21.228;2023-03-20T19:45:42;100096.62;;;8.84;80.78
36254;BME280;22291;52.250;21.228;2023-03-20T19:48:15;100090.73;;;8.82;81.00
36254;BME280;22291;52.250;21.228;2023-03-20T19:50:47;100091.83;;;8.81;80.87
36254;BME280;22291;52.250;21.228;2023-03-20T19:53:19;100092.91;;;8.80;80.90
36254;BME280;22291;52.250;21.228;2023-03-20T19:55:48;100095.61;;;8.80;81.08
36254;BME280;22291;52.250;21.228;2023-03-20T19:58:15;100096.47;;;8.78;81.11
36254;BME280;22291;52.250;21.228;2023-03-20T20:00:42;100090.84;;;8.77;80.86
36254;BME280;22291;52.250;21.228;2023-03-20T20:03:18;100087.13;;;8.73;81.27
36254;BME280;22291;52.250;21.228;2023-03-20T20:05:47;100098.22;;;8.71;81.48
36254;BME280;22291;52.250;21.228;2023-03-20T20:08:14;100097.43;;;8.71;81.53
36254;BME280;22291;52.250;21.228;2023-03-20T20:10:48;100102.33;;;8.69;81.43
36254;BME280;22291;52.250;21.228;2023-03-20T20:13:25;100098.02;;;8.68;81.25
36254;BME280;22291;52.250;21.228;2023-03-20T20:15:50;100097.80;;;8.67;81.21
36254;BME280;22291;52.250;21.228;2023-03-20T20:18:18;100094.08;;;8.63;81.44
36254;BME280;22291;52.250;21.228;2023-03-20T20:20:46;100093.03;;;8.61;81.40
36254;BME280;22291;52.250;21.228;2023-03-20T20:23:17;100093.33;;;8.59;81.34
36254;BME280;22291;52.250;21.228;2023-03-20T20:25:45;100088.23;;;8.58;81.77
36254;BME280;22291;52.250;21.228;2023-03-20T20:28:13;100092.05;;;8.57;82.01
36254;BME280;22291;52.250;21.228;2023-03-20T20:30:47;100092.84;;;8.57;82.14
36254;BME280;22291;52.250;21.228;2023-03-20T20:33:16;100079.32;;;8.60;82.49
36254;BME280;22291;52.250;21.228;2023-03-20T20:35:43;100087.94;;;8.59;82.58
36254;BME280;22291;52.250;21.228;2023-03-20T20:38:10;100097.34;;;8.62;83.01
36254;BME280;22291;52.250;21.228;2023-03-20T20:40:38;100094.64;;;8.62;84.62
36254;BME280;22291;52.250;21.228;2023-03-20T20:43:05;100100.23;;;8.66;85.87
36254;BME280;22291;52.250;21.228;2023-03-20T20:45:32;100106.31;;;8.71;85.60
36254;BME280;22291;52.250;21.228;2023-03-20T20:48:00;100107.52;;;8.79;85.89
36254;BME280;22291;52.250;21.228;2023-03-20T20:50:29;100112.25;;;8.85;85.55
36254;BME280;22291;52.250;21.228;2023-03-20T20:52:57;100111.84;;;8.91;85.85
36254;BME280;22291;52.250;21.228;2023-03-20T20:55:23;100118.97;;;8.98;85.76
36254;BME280;22291;52.250;21.228;2023-03-20T20:57:51;100116.72;;;9.03;85.95
36254;BME280;22291;52.250;21.228;2023-03-20T21:00:19;100116.31;;;9.10;86.53
36254;BME280;22291;52.250;21.228;2023-03-20T21:02:48;100117.47;;;9.18;86.11
36254;BME280;22291;52.250;21.228;2023-03-20T21:05:15;100126.09;;;9.20;86.09
36254;BME280;22291;52.250;21.228;2023-03-20T21:07:44;100123.62;;;9.21;86.26
36254;BME280;22291;52.250;21.228;2023-03-20T21:10:13;100120.92;;;9.21;86.22
36254;BME280;22291;52.250;21.228;2023-03-20T21:12:42;100114.73;;;9.20;86.10
36254;BME280;22291;52.250;21.228;2023-03-20T21:15:08;100105.03;;;9.19;86.16
36254;BME280;22291;52.250;21.228;2023-03-20T21:17:36;100113.39;;;9.20;86.16
36254;BME280;22291;52.250;21.228;2023-03-20T21:20:03;100109.90;;;9.20;86.17
36254;BME280;22291;52.250;21.228;2023-03-20T21:22:30;100113.95;;;9.20;86.32
36254;BME280;22291;52.250;21.228;2023-03-20T21:24:58;100112.30;;;9.21;86.36
36254;BME280;22291;52.250;21.228;2023-03-20T21:27:25;100113.39;;;9.20;86.45
36254;BME280;22291;52.250;21.228;2023-03-20T21:29:51;100112.83;;;9.21;86.62
36254;BME280;22291;52.250;21.228;2023-03-20T21:32:20;100118.48;;;9.22;86.50
36254;BME280;22291;52.250;21.228;2023-03-20T21:34:47;100114.13;;;9.23;86.64
36254;BME280;22291;52.250;21.228;2023-03-20T21:37:16;100116.02;;;9.23;86.88
36254;BME280;22291;52.250;21.228;2023-03-20T21:39:44;100115.78;;;9.22;86.60
36254;BME280;22291;52.250;21.228;2023-03-20T21:42:11;100110.39;;;9.22;86.47
36254;BME280;22291;52.250;21.228;2023-03-20T21:44:38;100111.17;;;9.22;86.55
36254;BME280;22291;52.250;21.228;2023-03-20T21:47:04;100111.48;;;9.21;86.57
36254;BME280;22291;52.250;21.228;2023-03-20T21:49:31;100112.30;;;9.21;86.57
36254;BME280;22291;52.250;21.228;2023-03-20T21:51:58;100109.08;;;9.19;86.81
36254;BME280;22291;52.250;21.228;2023-03-20T21:54:26;100103.98;;;9.18;86.27
36254;BME280;22291;52.250;21.228;2023-03-20T21:56:54;100099.94;;;9.18;86.43
36254;BME280;22291;52.250;21.228;2023-03-20T21:59:21;100096.52;;;9.14;86.23
36254;BME280;22291;52.250;21.228;2023-03-20T22:01:48;100098.66;;;9.15;86.41
36254;BME280;22291;52.250;21.228;2023-03-20T22:04:14;100114.06;;;9.14;86.30
36254;BME280;22291;52.250;21.228;2023-03-20T22:06:41;100114.40;;;9.10;86.53
36254;BME280;22291;52.250;21.228;2023-03-20T22:09:07;100110.66;;;9.09;86.71
36254;BME280;22291;52.250;21.228;2023-03-20T22:11:34;100115.30;;;9.06;86.55